sim
Sign-in with your pilot id or email,
or register
Callsign
Passwort

Schedule Details

Flight Number: RYR5143 (1)
Departure: Thessaloniki International Airport (LGTS) at 04:55
Arrival: Karlsruhe/Baden-Baden Airport (EDSB) at 07:40
Route: Ryanair Passenger Schedule. Enter filed route here before submitting Pirep.

Weather Information
Getting current METAR information for LGTS 230720Z 27005KT CAVOK 29/19 Q1020 NOSIG
Getting current METAR information for EDSB 230720Z 02006KT 350V050 CAVOK 17/14 Q1025

Schedule Frequency

Route Map